sensor_id;sensor_type;location;lat;lon;timestamp;temperature;humidity
2030;DHT22;1020;48.854;8.830;2022-12-18T00:01:58;-7.80;1.00
2030;DHT22;1020;48.854;8.830;2022-12-18T00:04:26;-7.80;1.00
2030;DHT22;1020;48.854;8.830;2022-12-18T00:06:54;-7.80;1.00
2030;DHT22;1020;48.854;8.830;2022-12-18T00:09:21;-8.00;1.00
2030;DHT22;1020;48.854;8.830;2022-12-18T00:11:48;-7.90;1.00
2030;DHT22;1020;48.854;8.830;2022-12-18T00:14:15;-7.90;1.00
2030;DHT22;1020;48.854;8.830;2022-12-18T00:16:44;-8.00;1.00
2030;DHT22;1020;48.854;8.830;2022-12-18T00:19:11;-8.10;1.00
2030;DHT22;1020;48.854;8.830;2022-12-18T00:21:38;-8.10;1.00
2030;DHT22;1020;48.854;8.830;2022-12-18T00:24:07;-8.10;1.00
2030;DHT22;1020;48.854;8.830;2022-12-18T00:26:35;-8.10;1.00
2030;DHT22;1020;48.854;8.830;2022-12-18T00:29:04;-8.10;1.00
2030;DHT22;1020;48.854;8.830;2022-12-18T00:31:32;-8.20;1.00
2030;DHT22;1020;48.854;8.830;2022-12-18T00:33:59;-8.20;1.00
2030;DHT22;1020;48.854;8.830;2022-12-18T00:36:28;-8.20;1.00
2030;DHT22;1020;48.854;8.830;2022-12-18T00:38:55;-8.20;1.00
2030;DHT22;1020;48.854;8.830;2022-12-18T00:41:24;-8.20;6.90
2030;DHT22;1020;48.854;8.830;2022-12-18T00:44:10;-8.30;22.00
2030;DHT22;1020;48.854;8.830;2022-12-18T00:46:38;-8.30;24.20
2030;DHT22;1020;48.854;8.830;2022-12-18T00:49:05;-8.40;17.20
2030;DHT22;1020;48.854;8.830;2022-12-18T00:51:31;-8.50;16.60
2030;DHT22;1020;48.854;8.830;2022-12-18T00:53:58;-8.50;39.10
2030;DHT22;1020;48.854;8.830;2022-12-18T00:56:26;-8.50;55.50
2030;DHT22;1020;48.854;8.830;2022-12-18T00:58:53;-8.40;81.50
2030;DHT22;1020;48.854;8.830;2022-12-18T01:01:20;-8.30;95.20
2030;DHT22;1020;48.854;8.830;2022-12-18T01:03:47;-8.20;99.90
2030;DHT22;1020;48.854;8.830;2022-12-18T01:06:14;-8.20;97.70
2030;DHT22;1020;48.854;8.830;2022-12-18T01:08:42;-8.20;99.90
2030;DHT22;1020;48.854;8.830;2022-12-18T01:11:09;-8.20;95.00
2030;DHT22;1020;48.854;8.830;2022-12-18T01:13:38;-8.20;94.00
2030;DHT22;1020;48.854;8.830;2022-12-18T01:16:05;-8.20;92.80
2030;DHT22;1020;48.854;8.830;2022-12-18T01:18:32;-8.20;87.80
2030;DHT22;1020;48.854;8.830;2022-12-18T01:20:59;-8.10;90.60
2030;DHT22;1020;48.854;8.830;2022-12-18T01:23:27;-8.00;93.80
2030;DHT22;1020;48.854;8.830;2022-12-18T01:25:54;-8.10;81.90
2030;DHT22;1020;48.854;8.830;2022-12-18T01:28:21;-8.00;85.60
2030;DHT22;1020;48.854;8.830;2022-12-18T01:30:49;-7.90;80.60
2030;DHT22;1020;48.854;8.830;2022-12-18T01:33:16;-7.80;94.50
2030;DHT22;1020;48.854;8.830;2022-12-18T01:35:43;-7.70;92.40
2030;DHT22;1020;48.854;8.830;2022-12-18T01:38:09;-7.70;78.40
2030;DHT22;1020;48.854;8.830;2022-12-18T01:40:36;-7.60;72.10
2030;DHT22;1020;48.854;8.830;2022-12-18T01:43:03;-7.60;50.30
2030;DHT22;1020;48.854;8.830;2022-12-18T01:45:31;-7.50;50.60
2030;DHT22;1020;48.854;8.830;2022-12-18T01:48:01;-7.40;41.10
2030;DHT22;1020;48.854;8.830;2022-12-18T01:50:31;-7.40;26.10
2030;DHT22;1020;48.854;8.830;2022-12-18T01:53:04;-7.40;3.00
2030;DHT22;1020;48.854;8.830;2022-12-18T01:55:36;-7.30;1.00
2030;DHT22;1020;48.854;8.830;2022-12-18T01:58:04;-7.30;1.00
2030;DHT22;1020;48.854;8.830;2022-12-18T02:00:31;-7.30;1.00
2030;DHT22;1020;48.854;8.830;2022-12-18T02:02:59;-7.20;1.00
2030;DHT22;1020;48.854;8.830;2022-12-18T02:05:33;-7.00;1.00
2030;DHT22;1020;48.854;8.830;2022-12-18T02:08:07;-7.00;1.00
2030;DHT22;1020;48.854;8.830;2022-12-18T02:10:42;-6.90;1.00
2030;DHT22;1020;48.854;8.830;2022-12-18T02:13:14;-6.90;1.00
2030;DHT22;1020;48.854;8.830;2022-12-18T02:15:48;-6.90;1.00
2030;DHT22;1020;48.854;8.830;2022-12-18T02:18:21;-7.20;1.00
2030;DHT22;1020;48.854;8.830;2022-12-18T02:20:55;-7.20;1.00
2030;DHT22;1020;48.854;8.830;2022-12-18T02:23:36;-7.40;1.00
2030;DHT22;1020;48.854;8.830;2022-12-18T02:26:15;-7.60;1.00
2030;DHT22;1020;48.854;8.830;2022-12-18T02:28:46;-7.60;1.00
2030;DHT22;1020;48.854;8.830;2022-12-18T02:31:16;-7.70;1.00
2030;DHT22;1020;48.854;8.830;2022-12-18T02:33:45;-7.70;1.00
2030;DHT22;1020;48.854;8.830;2022-12-18T02:36:13;-7.80;1.00
2030;DHT22;1020;48.854;8.830;2022-12-18T02:38:42;-7.80;1.00
2030;DHT22;1020;48.854;8.830;2022-12-18T02:41:11;-7.80;1.00
2030;DHT22;1020;48.854;8.830;2022-12-18T02:43:40;-7.70;1.00
2030;DHT22;1020;48.854;8.830;2022-12-18T02:46:27;-7.60;1.00
2030;DHT22;1020;48.854;8.830;2022-12-18T02:49:01;-7.60;1.00
2030;DHT22;1020;48.854;8.830;2022-12-18T02:51:32;-7.60;1.00
2030;DHT22;1020;48.854;8.830;2022-12-18T02:54:06;-7.50;1.00
2030;DHT22;1020;48.854;8.830;2022-12-18T02:56:42;-7.50;1.00
2030;DHT22;1020;48.854;8.830;2022-12-18T02:59:13;-7.50;99.90
2030;DHT22;1020;48.854;8.830;2022-12-18T03:01:45;-7.60;99.90
2030;DHT22;1020;48.854;8.830;2022-12-18T03:04:20;-7.60;99.90
2030;DHT22;1020;48.854;8.830;2022-12-18T03:06:50;-7.60;99.90
2030;DHT22;1020;48.854;8.830;2022-12-18T03:09:21;-7.70;99.90
2030;DHT22;1020;48.854;8.830;2022-12-18T03:11:54;-7.80;99.90
2030;DHT22;1020;48.854;8.830;2022-12-18T03:14:41;-7.80;99.90
2030;DHT22;1020;48.854;8.830;2022-12-18T03:17:14;-7.80;99.90
2030;DHT22;1020;48.854;8.830;2022-12-18T03:19:44;-7.80;99.90
2030;DHT22;1020;48.854;8.830;2022-12-18T03:22:12;-7.80;99.90
2030;DHT22;1020;48.854;8.830;2022-12-18T03:24:40;-7.80;99.90
2030;DHT22;1020;48.854;8.830;2022-12-18T03:27:10;-7.70;99.90
2030;DHT22;1020;48.854;8.830;2022-12-18T03:29:40;-7.60;99.90
2030;DHT22;1020;48.854;8.830;2022-12-18T03:32:11;-7.70;99.90
2030;DHT22;1020;48.854;8.830;2022-12-18T03:34:40;-7.80;99.90
2030;DHT22;1020;48.854;8.830;2022-12-18T03:37:08;-7.90;99.90
2030;DHT22;1020;48.854;8.830;2022-12-18T03:39:36;-7.80;99.90
2030;DHT22;1020;48.854;8.830;2022-12-18T03:42:08;-8.00;99.90
2030;DHT22;1020;48.854;8.830;2022-12-18T03:44:41;-8.10;99.90
2030;DHT22;1020;48.854;8.830;2022-12-18T03:47:14;-8.10;99.90
2030;DHT22;1020;48.854;8.830;2022-12-18T03:49:53;-8.30;99.90
2030;DHT22;1020;48.854;8.830;2022-12-18T03:52:26;-8.40;99.90
2030;DHT22;1020;48.854;8.830;2022-12-18T03:54:56;-8.40;99.90
2030;DHT22;1020;48.854;8.830;2022-12-18T03:57:28;-8.50;99.90
2030;DHT22;1020;48.854;8.830;2022-12-18T03:59:58;-8.50;1.00
2030;DHT22;1020;48.854;8.830;2022-12-18T04:02:26;-8.50;1.00
2030;DHT22;1020;48.854;8.830;2022-12-18T04:04:58;-8.60;99.90
2030;DHT22;1020;48.854;8.830;2022-12-18T04:07:26;-8.60;99.90
2030;DHT22;1020;48.854;8.830;2022-12-18T04:09:56;-8.70;1.00
2030;DHT22;1020;48.854;8.830;2022-12-18T04:12:26;-8.70;1.00
2030;DHT22;1020;48.854;8.830;2022-12-18T04:14:53;-8.80;1.00
2030;DHT22;1020;48.854;8.830;2022-12-18T04:17:20;-8.90;1.00
2030;DHT22;1020;48.854;8.830;2022-12-18T04:19:47;-8.90;1.00
2030;DHT22;1020;48.854;8.830;2022-12-18T04:22:14;-8.90;1.00
2030;DHT22;1020;48.854;8.830;2022-12-18T04:24:40;-8.90;1.00
2030;DHT22;1020;48.854;8.830;2022-12-18T04:27:07;-8.90;1.00
2030;DHT22;1020;48.854;8.830;2022-12-18T04:29:35;-8.90;1.00
2030;DHT22;1020;48.854;8.830;2022-12-18T04:32:02;-8.80;1.00
2030;DHT22;1020;48.854;8.830;2022-12-18T04:34:29;-8.80;1.00
2030;DHT22;1020;48.854;8.830;2022-12-18T04:36:56;-8.90;1.00
2030;DHT22;1020;48.854;8.830;2022-12-18T04:39:22;-8.90;1.00
2030;DHT22;1020;48.854;8.830;2022-12-18T04:41:49;-8.90;1.00
2030;DHT22;1020;48.854;8.830;2022-12-18T04:44:16;-8.80;1.00
2030;DHT22;1020;48.854;8.830;2022-12-18T04:46:44;-8.70;10.10
2030;DHT22;1020;48.854;8.830;2022-12-18T04:49:11;-8.70;9.30
2030;DHT22;1020;48.854;8.830;2022-12-18T04:51:38;-8.70;17.60
2030;DHT22;1020;48.854;8.830;2022-12-18T04:54:04;-8.60;13.50
2030;DHT22;1020;48.854;8.830;2022-12-18T04:56:32;-8.60;1.10
2030;DHT22;1020;48.854;8.830;2022-12-18T04:58:58;-8.60;1.00
2030;DHT22;1020;48.854;8.830;2022-12-18T05:01:25;-8.60;1.00
2030;DHT22;1020;48.854;8.830;2022-12-18T05:03:53;-8.50;1.00
2030;DHT22;1020;48.854;8.830;2022-12-18T05:06:20;-8.50;1.00
2030;DHT22;1020;48.854;8.830;2022-12-18T05:08:47;-8.60;1.00
2030;DHT22;1020;48.854;8.830;2022-12-18T05:11:14;-8.50;1.00
2030;DHT22;1020;48.854;8.830;2022-12-18T05:13:42;-8.60;1.00
2030;DHT22;1020;48.854;8.830;2022-12-18T05:16:09;-8.70;1.00
2030;DHT22;1020;48.854;8.830;2022-12-18T05:18:36;-8.80;1.00
2030;DHT22;1020;48.854;8.830;2022-12-18T05:21:05;-8.70;1.00
2030;DHT22;1020;48.854;8.830;2022-12-18T05:23:32;-8.80;1.00
2030;DHT22;1020;48.854;8.830;2022-12-18T05:26:03;-8.70;1.00
2030;DHT22;1020;48.854;8.830;2022-12-18T05:28:32;-8.80;1.00
2030;DHT22;1020;48.854;8.830;2022-12-18T05:31:00;-8.80;1.00
2030;DHT22;1020;48.854;8.830;2022-12-18T05:33:30;-8.90;1.00
2030;DHT22;1020;48.854;8.830;2022-12-18T05:36:03;-8.90;1.00
2030;DHT22;1020;48.854;8.830;2022-12-18T05:38:33;-8.80;4.60
2030;DHT22;1020;48.854;8.830;2022-12-18T05:41:02;-8.80;1.00
2030;DHT22;1020;48.854;8.830;2022-12-18T05:43:31;-8.70;1.00
2030;DHT22;1020;48.854;8.830;2022-12-18T05:46:03;-8.70;1.00
2030;DHT22;1020;48.854;8.830;2022-12-18T05:48:31;-8.70;1.00
2030;DHT22;1020;48.854;8.830;2022-12-18T05:51:04;-8.70;1.00
2030;DHT22;1020;48.854;8.830;2022-12-18T05:53:33;-8.70;1.00
2030;DHT22;1020;48.854;8.830;2022-12-18T05:56:01;-8.80;1.00
2030;DHT22;1020;48.854;8.830;2022-12-18T05:58:28;-8.80;11.90
2030;DHT22;1020;48.854;8.830;2022-12-18T06:00:56;-8.90;24.00
2030;DHT22;1020;48.854;8.830;2022-12-18T06:03:23;-8.90;52.10
2030;DHT22;1020;48.854;8.830;2022-12-18T06:05:50;-8.90;90.60
2030;DHT22;1020;48.854;8.830;2022-12-18T06:08:17;-8.90;96.60
2030;DHT22;1020;48.854;8.830;2022-12-18T06:10:49;-8.10;99.90
2030;DHT22;1020;48.854;8.830;2022-12-18T06:13:17;-8.80;99.90
2030;DHT22;1020;48.854;8.830;2022-12-18T06:15:44;-8.90;99.90
2030;DHT22;1020;48.854;8.830;2022-12-18T06:18:10;-8.80;99.90
2030;DHT22;1020;48.854;8.830;2022-12-18T06:20:37;-8.80;99.90
2030;DHT22;1020;48.854;8.830;2022-12-18T06:23:05;-8.80;99.90
2030;DHT22;1020;48.854;8.830;2022-12-18T06:25:32;-8.70;99.90
2030;DHT22;1020;48.854;8.830;2022-12-18T06:28:00;-8.70;99.90
2030;DHT22;1020;48.854;8.830;2022-12-18T06:30:27;-8.60;99.90
2030;DHT22;1020;48.854;8.830;2022-12-18T06:32:54;-8.60;99.90
2030;DHT22;1020;48.854;8.830;2022-12-18T06:35:22;-8.60;99.90
2030;DHT22;1020;48.854;8.830;2022-12-18T06:37:48;-8.50;99.90
2030;DHT22;1020;48.854;8.830;2022-12-18T06:42:43;-8.50;99.90
2030;DHT22;1020;48.854;8.830;2022-12-18T06:45:11;-8.50;99.90
2030;DHT22;1020;48.854;8.830;2022-12-18T06:47:38;-8.50;99.90
2030;DHT22;1020;48.854;8.830;2022-12-18T06:50:06;-8.40;99.90
2030;DHT22;1020;48.854;8.830;2022-12-18T06:52:34;-8.40;99.90
2030;DHT22;1020;48.854;8.830;2022-12-18T06:55:03;-8.30;99.90
2030;DHT22;1020;48.854;8.830;2022-12-18T06:57:30;-8.20;99.90
2030;DHT22;1020;48.854;8.830;2022-12-18T06:59:58;-8.20;99.90
2030;DHT22;1020;48.854;8.830;2022-12-18T07:02:27;-8.10;99.90
2030;DHT22;1020;48.854;8.830;2022-12-18T07:04:53;-8.20;99.90
2030;DHT22;1020;48.854;8.830;2022-12-18T07:07:20;-8.10;99.90
2030;DHT22;1020;48.854;8.830;2022-12-18T07:09:48;-8.00;99.90
2030;DHT22;1020;48.854;8.830;2022-12-18T07:12:15;-8.00;99.90
2030;DHT22;1020;48.854;8.830;2022-12-18T07:14:42;-8.00;99.90
2030;DHT22;1020;48.854;8.830;2022-12-18T07:17:09;-8.00;99.90
2030;DHT22;1020;48.854;8.830;2022-12-18T07:19:37;-7.90;99.90
2030;DHT22;1020;48.854;8.830;2022-12-18T07:22:04;-7.90;99.90
2030;DHT22;1020;48.854;8.830;2022-12-18T07:24:32;-8.00;99.90
2030;DHT22;1020;48.854;8.830;2022-12-18T07:26:59;-7.90;99.90
2030;DHT22;1020;48.854;8.830;2022-12-18T07:29:26;-7.90;99.90
2030;DHT22;1020;48.854;8.830;2022-12-18T07:31:54;-7.80;99.90
2030;DHT22;1020;48.854;8.830;2022-12-18T07:34:21;-7.70;99.90
2030;DHT22;1020;48.854;8.830;2022-12-18T07:36:49;-7.60;99.90
2030;DHT22;1020;48.854;8.830;2022-12-18T07:39:16;-7.40;99.90
2030;DHT22;1020;48.854;8.830;2022-12-18T07:41:42;-7.30;99.90
2030;DHT22;1020;48.854;8.830;2022-12-18T07:44:29;-7.20;99.90
2030;DHT22;1020;48.854;8.830;2022-12-18T07:46:56;-6.90;99.90
2030;DHT22;1020;48.854;8.830;2022-12-18T07:49:23;-6.50;99.90
2030;DHT22;1020;48.854;8.830;2022-12-18T07:51:51;-6.20;98.00
2030;DHT22;1020;48.854;8.830;2022-12-18T07:54:20;-5.60;2.90
2030;DHT22;1020;48.854;8.830;2022-12-18T07:56:47;-5.70;1.00
2030;DHT22;1020;48.854;8.830;2022-12-18T07:59:14;-5.50;1.00
2030;DHT22;1020;48.854;8.830;2022-12-18T08:01:41;-5.20;1.00
2030;DHT22;1020;48.854;8.830;2022-12-18T08:04:08;-5.10;1.00
2030;DHT22;1020;48.854;8.830;2022-12-18T08:06:34;-4.90;1.00
2030;DHT22;1020;48.854;8.830;2022-12-18T08:09:03;-4.60;1.00
2030;DHT22;1020;48.854;8.830;2022-12-18T08:11:29;-3.90;99.90
2030;DHT22;1020;48.854;8.830;2022-12-18T08:13:57;-3.20;1.00
2030;DHT22;1020;48.854;8.830;2022-12-18T08:16:24;-3.10;1.00
2030;DHT22;1020;48.854;8.830;2022-12-18T08:18:52;-3.00;99.90
2030;DHT22;1020;48.854;8.830;2022-12-18T08:21:21;-2.40;99.90
2030;DHT22;1020;48.854;8.830;2022-12-18T08:23:48;-4.00;1.00
2030;DHT22;1020;48.854;8.830;2022-12-18T08:26:17;-2.00;1.00
2030;DHT22;1020;48.854;8.830;2022-12-18T08:28:43;-2.20;1.00
2030;DHT22;1020;48.854;8.830;2022-12-18T08:31:10;-2.80;1.00
2030;DHT22;1020;48.854;8.830;2022-12-18T08:33:38;-2.90;1.00
2030;DHT22;1020;48.854;8.830;2022-12-18T08:36:06;-2.90;7.70
2030;DHT22;1020;48.854;8.830;2022-12-18T08:38:34;-3.10;1.00
2030;DHT22;1020;48.854;8.830;2022-12-18T08:41:02;-3.00;1.00
2030;DHT22;1020;48.854;8.830;2022-12-18T08:43:30;-2.70;1.00
2030;DHT22;1020;48.854;8.830;2022-12-18T08:46:16;-2.70;1.00
2030;DHT22;1020;48.854;8.830;2022-12-18T08:48:43;-2.10;1.00
2030;DHT22;1020;48.854;8.830;2022-12-18T08:51:10;-2.50;1.00
2030;DHT22;1020;48.854;8.830;2022-12-18T08:53:37;-3.20;1.00
2030;DHT22;1020;48.854;8.830;2022-12-18T08:56:05;-2.90;1.00
2030;DHT22;1020;48.854;8.830;2022-12-18T08:58:33;-2.80;1.00
2030;DHT22;1020;48.854;8.830;2022-12-18T09:01:00;-3.20;1.00
2030;DHT22;1020;48.854;8.830;2022-12-18T09:03:28;-3.30;67.70
2030;DHT22;1020;48.854;8.830;2022-12-18T09:05:55;-3.40;99.90
2030;DHT22;1020;48.854;8.830;2022-12-18T09:08:22;-3.70;99.90
2030;DHT22;1020;48.854;8.830;2022-12-18T09:10:50;-3.70;99.90
2030;DHT22;1020;48.854;8.830;2022-12-18T09:13:18;-3.70;1.00
2030;DHT22;1020;48.854;8.830;2022-12-18T09:15:48;-3.40;1.00
2030;DHT22;1020;48.854;8.830;2022-12-18T09:18:17;-3.60;1.00
2030;DHT22;1020;48.854;8.830;2022-12-18T09:20:44;-3.40;1.00
2030;DHT22;1020;48.854;8.830;2022-12-18T09:23:11;-3.40;99.90
2030;DHT22;1020;48.854;8.830;2022-12-18T09:25:38;-3.00;99.90
2030;DHT22;1020;48.854;8.830;2022-12-18T09:28:09;-2.70;99.90
2030;DHT22;1020;48.854;8.830;2022-12-18T09:30:37;-2.70;99.90
2030;DHT22;1020;48.854;8.830;2022-12-18T09:33:05;-2.90;99.90
2030;DHT22;1020;48.854;8.830;2022-12-18T09:35:32;-2.80;99.90
2030;DHT22;1020;48.854;8.830;2022-12-18T09:38:02;-2.50;99.90
2030;DHT22;1020;48.854;8.830;2022-12-18T09:40:35;-2.60;99.90
2030;DHT22;1020;48.854;8.830;2022-12-18T09:43:04;-3.30;99.90
2030;DHT22;1020;48.854;8.830;2022-12-18T09:45:38;-2.70;99.90
2030;DHT22;1020;48.854;8.830;2022-12-18T09:48:10;-2.80;99.90
2030;DHT22;1020;48.854;8.830;2022-12-18T09:50:43;-3.00;99.90
2030;DHT22;1020;48.854;8.830;2022-12-18T09:53:15;-3.00;99.90
2030;DHT22;1020;48.854;8.830;2022-12-18T09:55:46;-2.70;1.00
2030;DHT22;1020;48.854;8.830;2022-12-18T09:58:19;-2.60;99.90
2030;DHT22;1020;48.854;8.830;2022-12-18T10:00:47;-2.50;99.90
2030;DHT22;1020;48.854;8.830;2022-12-18T10:03:15;-2.40;99.90
2030;DHT22;1020;48.854;8.830;2022-12-18T10:05:48;-2.10;99.90
2030;DHT22;1020;48.854;8.830;2022-12-18T10:08:24;-2.00;99.90
2030;DHT22;1020;48.854;8.830;2022-12-18T10:11:00;-1.60;90.80
2030;DHT22;1020;48.854;8.830;2022-12-18T10:13:34;-1.90;87.50
2030;DHT22;1020;48.854;8.830;2022-12-18T10:16:09;-1.90;80.00
2030;DHT22;1020;48.854;8.830;2022-12-18T10:19:01;-1.60;44.80
2030;DHT22;1020;48.854;8.830;2022-12-18T10:21:34;-1.50;23.60
2030;DHT22;1020;48.854;8.830;2022-12-18T10:24:13;-1.50;4.60
2030;DHT22;1020;48.854;8.830;2022-12-18T10:26:44;-1.60;3.80
2030;DHT22;1020;48.854;8.830;2022-12-18T10:29:13;-1.20;1.00
2030;DHT22;1020;48.854;8.830;2022-12-18T10:31:40;-1.40;1.00
2030;DHT22;1020;48.854;8.830;2022-12-18T10:34:11;-1.40;1.00
2030;DHT22;1020;48.854;8.830;2022-12-18T10:36:38;-1.20;1.00
2030;DHT22;1020;48.854;8.830;2022-12-18T10:39:15;-1.30;1.00
2030;DHT22;1020;48.854;8.830;2022-12-18T10:41:43;-1.20;1.00
2030;DHT22;1020;48.854;8.830;2022-12-18T10:44:15;-1.00;1.00
2030;DHT22;1020;48.854;8.830;2022-12-18T10:46:44;-1.10;1.00
2030;DHT22;1020;48.854;8.830;2022-12-18T10:49:22;-1.20;1.00
2030;DHT22;1020;48.854;8.830;2022-12-18T10:51:49;-1.40;1.00
2030;DHT22;1020;48.854;8.830;2022-12-18T10:54:18;-1.10;1.00
2030;DHT22;1020;48.854;8.830;2022-12-18T10:56:46;-1.10;1.00
2030;DHT22;1020;48.854;8.830;2022-12-18T10:59:14;-1.30;1.00
2030;DHT22;1020;48.854;8.830;2022-12-18T11:01:52;-1.50;1.00
2030;DHT22;1020;48.854;8.830;2022-12-18T11:04:23;-1.40;1.00
2030;DHT22;1020;48.854;8.830;2022-12-18T11:06:56;-2.30;1.00
2030;DHT22;1020;48.854;8.830;2022-12-18T11:09:25;-0.90;1.00
2030;DHT22;1020;48.854;8.830;2022-12-18T11:11:53;-0.40;1.00
2030;DHT22;1020;48.854;8.830;2022-12-18T11:14:23;0.00;1.00
2030;DHT22;1020;48.854;8.830;2022-12-18T11:16:51;0.10;1.00
2030;DHT22;1020;48.854;8.830;2022-12-18T11:19:30;-1.30;1.00
2030;DHT22;1020;48.854;8.830;2022-12-18T11:21:58;-0.30;1.00
2030;DHT22;1020;48.854;8.830;2022-12-18T11:24:29;-0.10;1.00
2030;DHT22;1020;48.854;8.830;2022-12-18T11:26:59;-0.60;1.00
2030;DHT22;1020;48.854;8.830;2022-12-18T11:29:32;-0.40;1.00
2030;DHT22;1020;48.854;8.830;2022-12-18T11:32:21;-0.10;1.00
2030;DHT22;1020;48.854;8.830;2022-12-18T11:34:53;-0.90;1.00
2030;DHT22;1020;48.854;8.830;2022-12-18T11:37:24;-0.80;1.00
2030;DHT22;1020;48.854;8.830;2022-12-18T11:39:54;-1.00;1.00
2030;DHT22;1020;48.854;8.830;2022-12-18T11:42:25;-0.90;1.00
2030;DHT22;1020;48.854;8.830;2022-12-18T11:44:58;0.40;1.00
2030;DHT22;1020;48.854;8.830;2022-12-18T11:47:31;-0.60;1.00
2030;DHT22;1020;48.854;8.830;2022-12-18T11:50:12;-0.30;1.00
2030;DHT22;1020;48.854;8.830;2022-12-18T11:52:40;-0.50;1.00
2030;DHT22;1020;48.854;8.830;2022-12-18T11:55:12;-0.50;1.00
2030;DHT22;1020;48.854;8.830;2022-12-18T11:57:49;-0.60;1.00
2030;DHT22;1020;48.854;8.830;2022-12-18T12:00:20;-0.40;1.00
2030;DHT22;1020;48.854;8.830;2022-12-18T12:03:22;-0.60;1.00
2030;DHT22;1020;48.854;8.830;2022-12-18T12:06:03;-0.90;1.00
2030;DHT22;1020;48.854;8.830;2022-12-18T12:08:45;-0.80;1.00
2030;DHT22;1020;48.854;8.830;2022-12-18T12:11:22;-0.70;1.00
2030;DHT22;1020;48.854;8.830;2022-12-18T12:14:09;-1.00;1.00
2030;DHT22;1020;48.854;8.830;2022-12-18T12:16:45;-0.90;1.00
2030;DHT22;1020;48.854;8.830;2022-12-18T12:19:26;-0.90;1.00
2030;DHT22;1020;48.854;8.830;2022-12-18T12:22:02;-3.20;1.00
2030;DHT22;1020;48.854;8.830;2022-12-18T12:24:38;-0.80;1.00
2030;DHT22;1020;48.854;8.830;2022-12-18T12:27:15;-0.60;1.00
2030;DHT22;1020;48.854;8.830;2022-12-18T12:29:52;-0.60;1.00
2030;DHT22;1020;48.854;8.830;2022-12-18T12:32:28;-0.40;1.00
2030;DHT22;1020;48.854;8.830;2022-12-18T12:35:08;-0.10;1.00
2030;DHT22;1020;48.854;8.830;2022-12-18T12:37:49;-0.30;1.00
2030;DHT22;1020;48.854;8.830;2022-12-18T12:40:20;-0.30;1.00
2030;DHT22;1020;48.854;8.830;2022-12-18T12:42:53;-0.30;1.00
2030;DHT22;1020;48.854;8.830;2022-12-18T12:45:47;-0.40;1.00
2030;DHT22;1020;48.854;8.830;2022-12-18T12:48:20;-0.50;1.00
2030;DHT22;1020;48.854;8.830;2022-12-18T12:50:50;-0.40;1.00
2030;DHT22;1020;48.854;8.830;2022-12-18T12:53:25;0.00;1.00
2030;DHT22;1020;48.854;8.830;2022-12-18T12:55:53;0.10;1.00
2030;DHT22;1020;48.854;8.830;2022-12-18T12:58:29;0.60;1.00
2030;DHT22;1020;48.854;8.830;2022-12-18T13:01:04;0.60;1.00
2030;DHT22;1020;48.854;8.830;2022-12-18T13:03:43;0.70;1.00
2030;DHT22;1020;48.854;8.830;2022-12-18T13:06:19;0.80;1.00
2030;DHT22;1020;48.854;8.830;2022-12-18T13:08:55;0.30;1.00
2030;DHT22;1020;48.854;8.830;2022-12-18T13:11:39;-0.20;1.00
2030;DHT22;1020;48.854;8.830;2022-12-18T13:14:37;-1.00;1.00
2030;DHT22;1020;48.854;8.830;2022-12-18T13:17:37;-1.20;7.30
2030;DHT22;1020;48.854;8.830;2022-12-18T13:20:09;-1.40;99.90
2030;DHT22;1020;48.854;8.830;2022-12-18T13:22:40;-1.50;99.90
2030;DHT22;1020;48.854;8.830;2022-12-18T13:25:30;-1.60;99.90
2030;DHT22;1020;48.854;8.830;2022-12-18T13:28:04;-1.50;99.90
2030;DHT22;1020;48.854;8.830;2022-12-18T13:30:51;-1.40;99.90
2030;DHT22;1020;48.854;8.830;2022-12-18T13:33:49;-1.70;99.90
2030;DHT22;1020;48.854;8.830;2022-12-18T13:36:29;-1.60;1.00
2030;DHT22;1020;48.854;8.830;2022-12-18T13:39:21;-1.60;1.00
2030;DHT22;1020;48.854;8.830;2022-12-18T13:41:52;-1.70;1.00
2030;DHT22;1020;48.854;8.830;2022-12-18T13:44:31;-1.80;1.00
2030;DHT22;1020;48.854;8.830;2022-12-18T13:46:59;-1.70;1.00
2030;DHT22;1020;48.854;8.830;2022-12-18T13:49:31;-1.90;1.00
2030;DHT22;1020;48.854;8.830;2022-12-18T13:52:12;-2.00;39.10
2030;DHT22;1020;48.854;8.830;2022-12-18T13:54:42;-2.10;99.90
2030;DHT22;1020;48.854;8.830;2022-12-18T13:57:26;-2.10;99.90
2030;DHT22;1020;48.854;8.830;2022-12-18T13:59:54;-2.00;99.90
2030;DHT22;1020;48.854;8.830;2022-12-18T14:02:23;-2.00;99.90
2030;DHT22;1020;48.854;8.830;2022-12-18T14:04:51;-2.10;99.90
2030;DHT22;1020;48.854;8.830;2022-12-18T14:07:20;-2.20;99.90
2030;DHT22;1020;48.854;8.830;2022-12-18T14:09:50;-2.20;99.90
2030;DHT22;1020;48.854;8.830;2022-12-18T14:12:22;-2.30;1.00
2030;DHT22;1020;48.854;8.830;2022-12-18T14:15:17;-2.50;99.90
2030;DHT22;1020;48.854;8.830;2022-12-18T14:17:47;-2.40;1.00
2030;DHT22;1020;48.854;8.830;2022-12-18T14:20:15;-2.50;1.00
2030;DHT22;1020;48.854;8.830;2022-12-18T14:22:43;-2.50;1.00
2030;DHT22;1020;48.854;8.830;2022-12-18T14:25:17;-2.60;99.90
2030;DHT22;1020;48.854;8.830;2022-12-18T14:27:48;-2.50;1.00
2030;DHT22;1020;48.854;8.830;2022-12-18T14:30:29;-2.50;1.00
2030;DHT22;1020;48.854;8.830;2022-12-18T14:33:01;-2.50;1.00
2030;DHT22;1020;48.854;8.830;2022-12-18T14:35:28;-5.00;99.90
2030;DHT22;1020;48.854;8.830;2022-12-18T14:38:16;-2.80;99.90
2030;DHT22;1020;48.854;8.830;2022-12-18T14:40:44;-2.70;98.90
2030;DHT22;1020;48.854;8.830;2022-12-18T14:43:12;-2.80;99.90
2030;DHT22;1020;48.854;8.830;2022-12-18T14:45:40;-2.80;99.90
2030;DHT22;1020;48.854;8.830;2022-12-18T14:48:13;-2.80;99.90
2030;DHT22;1020;48.854;8.830;2022-12-18T14:50:41;-2.80;99.90
2030;DHT22;1020;48.854;8.830;2022-12-18T14:53:18;-2.70;99.90
2030;DHT22;1020;48.854;8.830;2022-12-18T14:55:46;-2.80;99.90
2030;DHT22;1020;48.854;8.830;2022-12-18T14:58:17;-2.80;99.90
2030;DHT22;1020;48.854;8.830;2022-12-18T15:00:44;-0.80;99.90
2030;DHT22;1020;48.854;8.830;2022-12-18T15:03:17;-2.80;99.90
2030;DHT22;1020;48.854;8.830;2022-12-18T15:05:45;-4.30;99.90
2030;DHT22;1020;48.854;8.830;2022-12-18T15:08:35;-2.90;1.00
2030;DHT22;1020;48.854;8.830;2022-12-18T15:11:02;-2.90;1.00
2030;DHT22;1020;48.854;8.830;2022-12-18T15:13:31;-3.00;1.00
2030;DHT22;1020;48.854;8.830;2022-12-18T15:16:00;-3.00;1.00
2030;DHT22;1020;48.854;8.830;2022-12-18T15:18:31;-3.00;1.00
2030;DHT22;1020;48.854;8.830;2022-12-18T15:21:06;-3.10;1.00
2030;DHT22;1020;48.854;8.830;2022-12-18T15:23:36;-3.10;1.00
2030;DHT22;1020;48.854;8.830;2022-12-18T15:26:04;-3.10;1.00
2030;DHT22;1020;48.854;8.830;2022-12-18T15:28:36;-3.20;1.00
2030;DHT22;1020;48.854;8.830;2022-12-18T15:31:06;-3.10;1.00
2030;DHT22;1020;48.854;8.830;2022-12-18T15:34:11;-3.20;1.00
2030;DHT22;1020;48.854;8.830;2022-12-18T15:36:39;-3.20;1.00
2030;DHT22;1020;48.854;8.830;2022-12-18T15:39:06;-3.20;1.00
2030;DHT22;1020;48.854;8.830;2022-12-18T15:41:35;-3.30;1.00
2030;DHT22;1020;48.854;8.830;2022-12-18T15:44:21;-3.30;1.00
2030;DHT22;1020;48.854;8.830;2022-12-18T15:46:49;-3.30;1.00
2030;DHT22;1020;48.854;8.830;2022-12-18T15:49:16;-3.30;1.00
2030;DHT22;1020;48.854;8.830;2022-12-18T15:51:42;-3.30;1.00
2030;DHT22;1020;48.854;8.830;2022-12-18T15:54:13;-3.40;1.00
2030;DHT22;1020;48.854;8.830;2022-12-18T15:56:41;-3.30;1.00
2030;DHT22;1020;48.854;8.830;2022-12-18T15:59:27;-1.00;1.00
2030;DHT22;1020;48.854;8.830;2022-12-18T16:01:54;-3.30;1.00
2030;DHT22;1020;48.854;8.830;2022-12-18T16:04:21;-3.30;1.00
2030;DHT22;1020;48.854;8.830;2022-12-18T16:06:49;-3.30;1.00
2030;DHT22;1020;48.854;8.830;2022-12-18T16:09:17;-3.30;1.00
2030;DHT22;1020;48.854;8.830;2022-12-18T16:11:44;-3.40;1.00
2030;DHT22;1020;48.854;8.830;2022-12-18T16:14:17;-3.30;1.00
2030;DHT22;1020;48.854;8.830;2022-12-18T16:16:47;-3.40;1.00
2030;DHT22;1020;48.854;8.830;2022-12-18T16:19:14;-3.40;1.00
2030;DHT22;1020;48.854;8.830;2022-12-18T16:21:41;-3.40;1.00
2030;DHT22;1020;48.854;8.830;2022-12-18T16:24:13;-3.30;1.00
2030;DHT22;1020;48.854;8.830;2022-12-18T16:26:40;-3.30;1.00
2030;DHT22;1020;48.854;8.830;2022-12-18T16:29:08;-3.20;1.00
2030;DHT22;1020;48.854;8.830;2022-12-18T16:31:35;-3.30;1.00
2030;DHT22;1020;48.854;8.830;2022-12-18T16:34:15;-3.30;1.00
2030;DHT22;1020;48.854;8.830;2022-12-18T16:36:44;-3.30;1.00
2030;DHT22;1020;48.854;8.830;2022-12-18T16:39:11;-3.20;1.00